Archival Weather

Norman Y Mineta San Jose Intl

San Jose, California (KSJC)

Report from: Saturday, February 17, 2024 3:53 PM PST
Current time: Friday, June 21, 2024 12:11 AM PDT

Current weather – Weather history – Daily summaries
Weather forecast

Present weatherLight rain
Temperature14.4°C (57.9°F)
Dew point10.6°C (51.1°F)
Winds 13 kts (6.7 m/s, 15 mph) South-Southeast (150°)
Visibility4 mi. (6.4 km)
Clouds Few clouds 500 ft. (152 m)
Ceiling: Broken clouds 3,500 ft. (1,067 m)
Overcast 8,000 ft. (2,438 m)
Altimeter29.86 in.Hg (1011 mB)
Precipitiation0.02 in. (1 mm)
Precip. events Rain ended 11:02 PM
Rain began 11:19 PM
Precip last 3 hours0.04 in. (1 mm)
Relative humidity78 %
Density altitude179 ft. (54 m)
Sea-level pressure101.1 kPa (1011 mB, 29.86 in.Hg)
Max temp last 6 hours16.1°C (61.0°F)
Min temp last 6 hours13.3°C (55.9°F)
Remarks Automated weather observing station with precipitation discriminator
Pressure falling more slowly
Flight conditions Marginal Visual Meteorological Conditions
Raw dataKSJC 172353Z 15013KT 4SM -RA FEW005 BKN035 OVC080 14/11 A2986 RMK AO2 RAE02B19 SLP112 P0002 60004 T01440106 10161 20133 56011
An error has occurred. This application may no longer respond until reloaded. Reload 🗙